Time;durP1;ratioP1;P1;durP2;ratioP2;P2;SDS_P1;SDS_P2;PMS_P1;PMS_P2;Temp;Humidity;BMP_temperature;BMP_pressure;BME280_temperature;BME280_humidity;BME280_pressure;Samples;Min_cycle;Max_cycle;Signal;HPM_P1;HPM_P2
2023/03/20 00:00:23;;;;;;;1.90;0.95;;;19.20;63.40;;;;;;5032330;28;20507;-65
2023/03/20 00:02:50;;;;;;;;;;;19.10;63.40;;;;;;5032513;28;20057;-66
2023/03/20 00:05:20;;;;;;;1.83;0.90;;;19.10;63.40;;;;;;5032518;28;19925;-65
2023/03/20 00:07:48;;;;;;;1.73;0.32;;;19.00;63.50;;;;;;5013883;28;20414;-66
2023/03/20 00:10:16;;;;;;;1.38;0.52;;;19.10;63.50;;;;;;5032442;28;20100;-65
2023/03/20 00:12:44;;;;;;;2.03;0.88;;;19.00;63.50;;;;;;5031865;28;20111;-65
2023/03/20 00:15:27;;;;;;;1.52;0.40;;;19.00;63.60;;;;;;5014067;28;20057;-66
2023/03/20 00:17:55;;;;;;;1.35;0.45;;;18.90;63.50;;;;;;5028751;28;20597;-67
2023/03/20 00:20:22;;;;;;;1.80;0.73;;;18.90;63.60;;;;;;5032118;28;20060;-65
2023/03/20 00:22:50;;;;;;;2.08;0.93;;;18.90;63.60;;;;;;5031266;28;20049;-66
2023/03/20 00:25:19;;;;;;;1.83;0.70;;;18.90;63.70;;;;;;5032040;28;20132;-66
2023/03/20 00:27:46;;;;;;;1.55;0.80;;;18.90;63.70;;;;;;5031059;28;20087;-65
2023/03/20 00:30:21;;;;;;;1.25;0.43;;;18.90;63.60;;;;;;5014053;28;20066;-66
2023/03/20 00:32:48;;;;;;;1.52;0.73;;;18.90;63.50;;;;;;5013555;28;20053;-65
2023/03/20 00:35:21;;;;;;;1.20;0.70;;;18.90;63.50;;;;;;5014096;28;20056;-65
2023/03/20 00:37:49;;;;;;;1.52;0.93;;;19.00;63.50;;;;;;5031088;28;20049;-65
2023/03/20 00:40:16;;;;;;;1.27;0.45;;;19.00;63.40;;;;;;5013671;28;20476;-65
2023/03/20 00:42:45;;;;;;;2.13;0.80;;;19.00;63.40;;;;;;5031334;28;20498;-65
2023/03/20 00:45:15;;;;;;;2.65;0.40;;;19.10;63.30;;;;;;5013506;28;20470;-65
2023/03/20 00:47:44;;;;;;;1.35;0.45;;;19.20;63.30;;;;;;5030907;28;20053;-66
2023/03/20 00:50:16;;;;;;;1.85;0.93;;;19.20;63.20;;;;;;5031124;28;20124;-65
2023/03/20 00:52:44;;;;;;;1.67;0.65;;;19.20;63.10;;;;;;5013188;28;20060;-65
2023/03/20 00:55:11;;;;;;;1.60;0.85;;;19.30;63.00;;;;;;5031331;28;20570;-65
2023/03/20 00:57:42;;;;;;;1.80;0.47;;;19.40;62.90;;;;;;5013291;28;20059;-65
2023/03/20 01:00:24;;;;;;;1.63;0.40;;;19.40;62.80;;;;;;5013486;28;20191;-65
2023/03/20 01:02:55;;;;;;;1.30;0.43;;;19.50;62.60;;;;;;5029985;28;20046;-66
2023/03/20 01:05:22;;;;;;;1.27;0.40;;;19.50;62.50;;;;;;5031362;28;20056;-66
2023/03/20 01:07:49;;;;;;;1.17;0.22;;;19.50;62.50;;;;;;5013881;28;20083;-66
2023/03/20 01:10:17;;;;;;;1.33;0.47;;;19.60;62.50;;;;;;5029919;28;20057;-66
2023/03/20 01:12:46;;;;;;;1.15;0.60;;;19.60;62.50;;;;;;5030439;28;20119;-66
2023/03/20 01:15:19;;;;;;;1.23;0.60;;;19.60;62.50;;;;;;5027012;28;20042;-66
2023/03/20 01:17:46;;;;;;;1.52;0.85;;;19.60;62.50;;;;;;5011477;28;20092;-65
2023/03/20 01:20:22;;;;;;;1.40;0.63;;;19.60;62.60;;;;;;4995032;28;20057;-66
2023/03/20 01:22:49;;;;;;;1.75;0.70;;;19.50;62.50;;;;;;5013220;28;20050;-65
2023/03/20 01:25:16;;;;;;;2.50;0.55;;;19.50;62.60;;;;;;5029476;28;20509;-65
2023/03/20 01:27:46;;;;;;;1.42;0.52;;;19.50;62.60;;;;;;5029974;28;20392;-65
2023/03/20 01:30:20;;;;;;;1.55;0.70;;;19.40;62.60;;;;;;5030586;28;20116;-65
2023/03/20 01:32:47;;;;;;;2.03;0.75;;;19.40;62.70;;;;;;5030625;28;20506;-65
2023/03/20 01:35:16;;;;;;;1.10;0.60;;;19.40;63.30;;;;;;5030046;28;20518;-66
2023/03/20 01:37:45;;;;;;;1.10;0.28;;;19.40;62.70;;;;;;5012874;28;20092;-65
2023/03/20 01:40:24;;;;;;;1.60;1.17;;;19.40;62.80;;;;;;5030561;28;20045;-65
2023/03/20 01:42:52;;;;;;;1.15;0.40;;;19.30;62.80;;;;;;5012578;28;20053;-65
2023/03/20 01:45:22;;;;;;;1.48;0.82;;;19.30;62.80;;;;;;5030319;28;20061;-66
2023/03/20 01:47:50;;;;;;;0.98;0.43;;;19.20;62.80;;;;;;5012516;28;20057;-65
2023/03/20 01:50:22;;;;;;;1.40;0.40;;;19.20;62.90;;;;;;5012332;28;20054;-66
2023/03/20 01:52:54;;;;;;;1.95;0.80;;;19.20;62.90;;;;;;5030711;28;20053;-65
2023/03/20 01:55:22;;;;;;;1.10;0.32;;;19.20;62.90;;;;;;5012355;28;20045;-65
2023/03/20 01:57:51;;;;;;;1.40;0.75;;;19.20;63.00;;;;;;5029611;28;20819;-65
2023/03/20 02:00:19;;;;;;;1.45;0.15;;;19.10;63.00;;;;;;5029939;28;20499;-65
2023/03/20 02:02:48;;;;;;;1.73;0.60;;;19.10;63.00;;;;;;5030307;28;20045;-65
2023/03/20 02:05:20;;;;;;;1.08;0.50;;;19.10;63.00;;;;;;5030531;28;20057;-65
2023/03/20 02:07:54;;;;;;;1.23;0.43;;;19.10;63.10;;;;;;5028916;28;20057;-66
2023/03/20 02:10:21;;;;;;;1.13;0.43;;;19.00;63.10;;;;;;5030118;28;20054;-66
2023/03/20 02:12:49;;;;;;;1.10;0.40;;;19.00;63.10;;;;;;5030424;28;20065;-66
2023/03/20 02:15:17;;;;;;;1.48;0.60;;;19.00;63.10;;;;;;5021173;28;20426;-65
2023/03/20 02:17:45;;;;;;;1.65;0.90;;;18.90;63.10;;;;;;5012719;28;20482;-65
2023/03/20 02:20:22;;;;;;;0.98;0.32;;;18.90;63.20;;;;;;5029987;28;20055;-65
2023/03/20 02:23:36;;;;;;;1.02;0.52;;;18.90;63.20;;;;;;5026157;28;20054;-65
2023/03/20 02:26:23;;;;;;;1.20;0.60;;;18.80;63.10;;;;;;5012092;28;20061;-66
2023/03/20 02:29:15;;;;;;;1.13;0.60;;;18.80;63.10;;;;;;5017171;28;20099;-66
2023/03/20 02:32:16;;;;;;;1.42;0.77;;;18.90;63.10;;;;;;5029592;28;20673;-65
2023/03/20 02:35:18;;;;;;;1.80;0.85;;;18.90;63.10;;;;;;5027196;28;20053;-65
2023/03/20 02:38:22;;;;;;;1.25;0.28;;;18.90;63.00;;;;;;5011333;28;20050;-66
2023/03/20 02:40:55;;;;;;;1.40;0.50;;;19.00;63.00;;;;;;5032173;28;20065;-65
2023/03/20 02:43:29;;;;;;;0.98;0.35;;;19.00;62.90;;;;;;5028188;28;20068;-66
2023/03/20 02:46:02;;;;;;;0.93;0.47;;;19.00;62.80;;;;;;5010948;28;20053;-66
2023/03/20 02:48:39;;;;;;;1.58;0.90;;;19.10;62.80;;;;;;5032547;28;20057;-65
2023/03/20 02:51:14;;;;;;;1.08;0.68;;;19.20;62.70;;;;;;5015853;28;20053;-65
2023/03/20 02:53:51;;;;;;;1.55;0.55;;;19.20;62.60;;;;;;5033779;28;20111;-65
2023/03/20 02:56:24;;;;;;;1.17;0.50;;;19.30;62.50;;;;;;5015384;28;20054;-65
2023/03/20 02:58:57;;;;;;;2.92;0.52;;;19.40;62.40;;;;;;5032156;28;20049;-65
2023/03/20 03:01:28;;;;;;;1.02;0.73;;;19.50;62.40;;;;;;5014843;28;20057;-65
2023/03/20 03:03:58;;;;;;;0.70;0.43;;;19.50;62.20;;;;;;5032151;28;20060;-65
2023/03/20 03:06:30;;;;;;;1.00;0.45;;;19.50;62.20;;;;;;5033652;28;20050;-65
2023/03/20 03:09:03;;;;;;;1.23;0.90;;;19.60;62.20;;;;;;5026284;28;20506;-67
2023/03/20 03:11:32;;;;;;;0.98;0.38;;;19.60;62.10;;;;;;5013882;28;20099;-66
2023/03/20 03:14:00;;;;;;;1.23;0.22;;;19.50;62.10;;;;;;5021346;28;20050;-65
2023/03/20 03:16:32;;;;;;;1.33;0.50;;;19.60;62.20;;;;;;5015331;28;20478;-65
2023/03/20 03:19:05;;;;;;;1.35;0.75;;;19.50;62.10;;;;;;5015555;28;20057;-65
2023/03/20 03:21:33;;;;;;;1.58;0.65;;;19.50;62.20;;;;;;5032599;28;20049;-65
2023/03/20 03:24:03;;;;;;;1.13;0.55;;;19.50;62.20;;;;;;5014913;28;20053;-65
2023/03/20 03:26:35;;;;;;;1.33;0.20;;;19.50;62.30;;;;;;5031999;28;20366;-65
2023/03/20 03:29:10;;;;;;;1.50;0.32;;;19.40;62.20;;;;;;5032415;28;20490;-65
2023/03/20 03:31:38;;;;;;;1.45;0.38;;;19.40;62.30;;;;;;5032852;28;20054;-65
2023/03/20 03:34:05;;;;;;;1.10;0.68;;;19.40;62.30;;;;;;5032395;28;20056;-65
2023/03/20 03:36:43;;;;;;;1.27;0.70;;;19.40;62.40;;;;;;5032645;28;20144;-65
2023/03/20 03:39:21;;;;;;;1.80;0.43;;;19.30;62.40;;;;;;5032910;28;20065;-65
2023/03/20 03:41:52;;;;;;;1.23;0.73;;;19.30;62.40;;;;;;5032920;28;20057;-65
2023/03/20 03:44:26;;;;;;;1.63;0.63;;;19.30;62.50;;;;;;5032656;28;20052;-65
2023/03/20 03:46:56;;;;;;;1.27;0.85;;;19.30;62.50;;;;;;5030528;28;20045;-65
2023/03/20 03:49:27;;;;;;;1.10;0.28;;;19.20;62.50;;;;;;5013711;28;20053;-66
2023/03/20 03:51:57;;;;;;;1.20;0.20;;;19.20;62.60;;;;;;5014867;28;20049;-65
2023/03/20 03:54:30;;;;;;;1.40;0.20;;;19.20;62.60;;;;;;5015163;28;20049;-65
2023/03/20 03:56:59;;;;;;;1.30;0.70;;;19.10;62.60;;;;;;5013206;28;20057;-65
2023/03/20 03:59:33;;;;;;;1.58;0.55;;;19.10;62.60;;;;;;5014111;28;20077;-66
2023/03/20 04:02:04;;;;;;;1.13;0.60;;;19.10;62.60;;;;;;4994997;28;20494;-65
2023/03/20 04:04:32;;;;;;;1.38;0.65;;;19.10;62.70;;;;;;5012670;28;20085;-65
2023/03/20 04:06:59;;;;;;;1.15;0.57;;;19.00;62.70;;;;;;4999143;28;20045;-65
2023/03/20 04:09:28;;;;;;;1.67;0.60;;;19.00;62.80;;;;;;5032292;28;20053;-66
2023/03/20 04:11:55;;;;;;;1.15;0.63;;;19.00;62.80;;;;;;5020544;28;20104;-65
2023/03/20 04:14:22;;;;;;;1.38;0.77;;;19.00;62.80;;;;;;4995218;28;20046;-66
2023/03/20 04:16:49;;;;;;;1.02;0.70;;;18.90;62.70;;;;;;4996650;28;20058;-66
2023/03/20 04:19:16;;;;;;;1.35;0.73;;;18.90;62.80;;;;;;5011079;28;20046;-66
2023/03/20 04:21:44;;;;;;;1.08;0.60;;;18.90;62.80;;;;;;5015872;28;20058;-65
2023/03/20 04:24:11;;;;;;;1.10;0.70;;;18.90;62.80;;;;;;5032222;28;20057;-65
2023/03/20 04:26:40;;;;;;;1.70;0.70;;;18.90;62.90;;;;;;5018533;28;20081;-66
2023/03/20 04:29:07;;;;;;;1.45;0.68;;;18.80;62.80;;;;;;5032246;28;20540;-65
2023/03/20 04:31:34;;;;;;;1.73;0.55;;;18.90;62.80;;;;;;5031502;28;20131;-65
2023/03/20 04:34:01;;;;;;;1.33;0.70;;;18.90;62.80;;;;;;5014186;28;20103;-66
2023/03/20 04:36:28;;;;;;;1.33;0.70;;;18.90;62.70;;;;;;5030084;28;20057;-65
2023/03/20 04:38:55;;;;;;;1.48;0.50;;;19.00;62.70;;;;;;5031727;28;20054;-65
2023/03/20 04:41:22;;;;;;;1.50;0.90;;;19.00;62.60;;;;;;5031688;28;20053;-65
2023/03/20 04:43:50;;;;;;;1.90;0.43;;;19.00;62.60;;;;;;5031627;28;20506;-65
2023/03/20 04:46:17;;;;;;;1.98;0.90;;;19.10;62.50;;;;;;5031400;28;20057;-66
2023/03/20 04:48:44;;;;;;;1.30;0.55;;;19.10;62.40;;;;;;5031567;28;20148;-65
2023/03/20 04:51:11;;;;;;;1.95;0.80;;;19.20;62.40;;;;;;5016316;28;20514;-65
2023/03/20 04:53:38;;;;;;;1.08;0.57;;;19.30;62.30;;;;;;5013924;28;20057;-65
2023/03/20 04:56:06;;;;;;;1.33;0.63;;;19.30;62.20;;;;;;5031445;28;20060;-65
2023/03/20 04:58:34;;;;;;;1.02;0.63;;;19.40;62.10;;;;;;5030643;28;20056;-65
2023/03/20 05:01:03;;;;;;;1.20;0.55;;;19.50;62.10;;;;;;5012320;28;20103;-65
2023/03/20 05:03:30;;;;;;;1.52;0.70;;;19.50;61.90;;;;;;5031192;28;20065;-66
2023/03/20 05:05:56;;;;;;;0.70;0.50;;;19.50;61.80;;;;;;5012413;28;20528;-66
2023/03/20 05:08:24;;;;;;;1.10;0.40;;;19.50;61.80;;;;;;5029530;28;20053;-65
2023/03/20 05:10:51;;;;;;;1.30;0.68;;;19.60;61.80;;;;;;5000662;28;20164;-65
2023/03/20 05:13:18;;;;;;;1.73;0.60;;;19.60;61.80;;;;;;4993954;28;20471;-65
2023/03/20 05:15:46;;;;;;;1.30;0.70;;;19.50;61.80;;;;;;5007656;28;20058;-65
2023/03/20 05:18:15;;;;;;;1.60;0.85;;;19.60;61.80;;;;;;5020673;28;20049;-66
2023/03/20 05:20:42;;;;;;;1.30;0.70;;;19.50;61.80;;;;;;5013480;28;20143;-65
2023/03/20 05:23:09;;;;;;;1.48;0.70;;;19.50;61.90;;;;;;5031267;28;20045;-65
2023/03/20 05:25:36;;;;;;;1.27;0.60;;;19.50;61.90;;;;;;5012920;28;20057;-66
2023/03/20 05:28:03;;;;;;;1.30;0.40;;;19.50;61.90;;;;;;5030676;28;20396;-65
2023/03/20 05:30:30;;;;;;;1.48;0.60;;;19.50;62.00;;;;;;5027796;28;20089;-66
2023/03/20 05:32:57;;;;;;;1.15;0.20;;;19.40;62.00;;;;;;5017624;28;20050;-66
2023/03/20 05:35:25;;;;;;;1.67;0.43;;;19.40;62.00;;;;;;5012423;28;20053;-65
2023/03/20 05:37:52;;;;;;;1.15;0.38;;;19.40;62.00;;;;;;5030435;28;20051;-66
2023/03/20 05:40:22;;;;;;;1.15;0.50;;;19.30;62.00;;;;;;5027689;28;20045;-66
2023/03/20 05:42:50;;;;;;;1.20;0.22;;;19.30;62.70;;;;;;5011981;28;20045;-65
2023/03/20 05:45:17;;;;;;;1.42;0.50;;;19.30;62.10;;;;;;5030519;28;20049;-66
2023/03/20 05:47:44;;;;;;;1.38;0.32;;;19.30;62.10;;;;;;5029412;28;20132;-66
2023/03/20 05:50:12;;;;;;;1.40;0.65;;;19.20;62.10;;;;;;5030860;28;20060;-66
2023/03/20 05:52:40;;;;;;;1.38;0.75;;;19.20;62.20;;;;;;5015806;28;20054;-66
2023/03/20 05:55:08;;;;;;;1.88;0.82;;;19.20;62.20;;;;;;4996239;28;20046;-66
2023/03/20 05:57:35;;;;;;;1.75;0.65;;;19.20;62.20;;;;;;4993153;28;20046;-66
2023/03/20 06:00:02;;;;;;;1.55;0.82;;;19.10;62.20;;;;;;5022175;28;20533;-65
2023/03/20 06:02:30;;;;;;;1.38;0.77;;;19.10;62.30;;;;;;5028262;28;20524;-65
2023/03/20 06:04:57;;;;;;;1.15;0.60;;;19.10;62.30;;;;;;5028957;28;20053;-66
2023/03/20 06:07:24;;;;;;;1.88;0.63;;;19.10;62.30;;;;;;5028452;28;20053;-65
2023/03/20 06:09:52;;;;;;;0.75;0.13;;;19.00;62.30;;;;;;5014202;28;20049;-67
2023/03/20 06:12:19;;;;;;;1.58;0.70;;;19.00;62.30;;;;;;5010984;28;20526;-66
2023/03/20 06:14:46;;;;;;;1.35;0.55;;;19.00;62.40;;;;;;5029646;28;20548;-66
2023/03/20 06:17:13;;;;;;;1.10;0.60;;;18.90;62.30;;;;;;5029652;28;20068;-65
2023/03/20 06:19:40;;;;;;;1.30;0.65;;;18.90;62.40;;;;;;5012659;28;20057;-65
2023/03/20 06:22:07;;;;;;;1.60;0.75;;;18.90;62.50;;;;;;4997158;28;20065;-66
2023/03/20 06:24:34;;;;;;;3.17;0.40;;;18.90;62.50;;;;;;5009090;28;20510;-65
2023/03/20 06:27:03;;;;;;;1.50;0.73;;;18.90;62.50;;;;;;5008878;28;20049;-66
2023/03/20 06:29:30;;;;;;;1.08;0.75;;;18.80;62.40;;;;;;5029818;28;20053;-65
2023/03/20 06:31:57;;;;;;;1.38;0.45;;;18.90;62.50;;;;;;5028684;28;20057;-66
2023/03/20 06:34:24;;;;;;;2.03;0.80;;;18.90;62.40;;;;;;5028552;28;20060;-65
2023/03/20 06:36:51;;;;;;;0.90;0.47;;;18.90;62.40;;;;;;5028992;28;20058;-65
2023/03/20 06:39:18;;;;;;;1.67;0.80;;;19.00;62.40;;;;;;5029898;28;20067;-65
2023/03/20 06:41:45;;;;;;;1.08;0.35;;;19.00;62.30;;;;;;5029785;28;20064;-65
2023/03/20 06:44:14;;;;;;;1.80;0.90;;;19.00;62.20;;;;;;5029913;28;20045;-65
2023/03/20 06:46:41;;;;;;;1.65;0.55;;;19.10;62.20;;;;;;5028646;28;20057;-66
2023/03/20 06:49:08;;;;;;;1.55;0.60;;;19.20;62.10;;;;;;5026150;28;20050;-64
2023/03/20 06:51:34;;;;;;;0.82;0.32;;;19.20;62.00;;;;;;5029007;28;20064;-65
2023/03/20 06:54:01;;;;;;;1.10;0.35;;;19.20;61.90;;;;;;5028689;28;20046;-65
2023/03/20 06:56:28;;;;;;;1.70;0.65;;;19.30;61.80;;;;;;5012041;28;20045;-65
2023/03/20 06:58:55;;;;;;;0.95;0.40;;;19.40;61.70;;;;;;5011918;28;20530;-65
2023/03/20 07:01:24;;;;;;;1.58;0.52;;;19.50;61.60;;;;;;5029283;28;20057;-65
2023/03/20 07:03:52;;;;;;;0.80;0.20;;;19.50;61.50;;;;;;5027882;28;20107;-65
2023/03/20 07:06:19;;;;;;;1.85;0.63;;;19.60;61.40;;;;;;5028713;28;20059;-66
2023/03/20 07:08:46;;;;;;;2.00;0.80;;;19.60;61.40;;;;;;5013159;28;20057;-65
2023/03/20 07:11:13;;;;;;;1.67;0.50;;;19.60;61.40;;;;;;5028462;28;20060;-66
2023/03/20 07:13:40;;;;;;;1.45;0.45;;;19.60;61.40;;;;;;5029496;28;20046;-65
2023/03/20 07:16:08;;;;;;;1.70;0.10;;;19.60;61.30;;;;;;4994558;28;20057;-64
2023/03/20 07:18:36;;;;;;;1.55;0.47;;;19.60;61.40;;;;;;5009776;28;20564;-65
2023/03/20 07:21:06;;;;;;;1.42;0.70;;;19.60;61.50;;;;;;4963976;28;20116;-65
2023/03/20 07:23:34;;;;;;;;;;;19.60;61.50;;;;;;4921631;28;68607;-64
2023/03/20 07:26:01;;;;;;;1.30;0.60;;;19.60;61.70;;;;;;5030234;28;19932;-65
2023/03/20 07:28:28;;;;;;;1.23;0.22;;;19.60;61.70;;;;;;5014108;28;20053;-65
2023/03/20 07:30:55;;;;;;;1.92;0.30;;;19.50;61.70;;;;;;5031750;28;20054;-66
2023/03/20 07:33:22;;;;;;;1.05;0.22;;;19.50;61.70;;;;;;5015179;28;20057;-65
2023/03/20 07:35:53;;;;;;;0.80;0.30;;;19.50;61.80;;;;;;5033265;28;20053;-66
2023/03/20 07:38:21;;;;;;;1.70;0.82;;;19.50;61.80;;;;;;5031920;28;20057;-65
2023/03/20 07:40:48;;;;;;;1.67;0.55;;;19.40;61.80;;;;;;5032338;28;20136;-64
2023/03/20 07:43:15;;;;;;;1.35;0.60;;;19.40;61.90;;;;;;5032381;28;20524;-66
2023/03/20 07:45:42;;;;;;;1.73;0.88;;;19.40;61.90;;;;;;5032576;28;20051;-66
2023/03/20 07:48:10;;;;;;;1.20;0.57;;;19.40;62.00;;;;;;5031686;28;20057;-65
2023/03/20 07:50:37;;;;;;;1.40;0.20;;;19.30;62.00;;;;;;5014665;28;20053;-65
2023/03/20 07:53:06;;;;;;;2.25;0.20;;;19.30;62.00;;;;;;5014757;28;20057;-64
2023/03/20 07:55:33;;;;;;;1.10;0.25;;;19.30;62.00;;;;;;5032592;28;20482;-65
2023/03/20 07:58:00;;;;;;;1.42;0.88;;;19.30;62.60;;;;;;5032529;28;20056;-65
2023/03/20 08:00:27;;;;;;;1.83;0.80;;;19.30;62.10;;;;;;5014977;28;20100;-65
2023/03/20 08:02:55;;;;;;;1.50;0.63;;;19.20;62.00;;;;;;4999040;28;20050;-65
2023/03/20 08:05:22;;;;;;;1.65;0.57;;;19.20;62.10;;;;;;5029658;28;20107;-65
2023/03/20 08:07:49;;;;;;;1.50;0.40;;;19.20;62.10;;;;;;5027830;28;20045;-65
2023/03/20 08:10:18;;;;;;;1.00;0.60;;;19.20;62.10;;;;;;5014498;28;20053;-65
2023/03/20 08:12:45;;;;;;;2.33;0.50;;;19.10;62.10;;;;;;5014438;28;20060;-65
2023/03/20 08:15:12;;;;;;;1.10;0.80;;;19.20;62.20;;;;;;5031274;28;20049;-65
2023/03/20 08:17:42;;;;;;;1.30;0.65;;;19.10;62.20;;;;;;5032033;28;20520;-64
2023/03/20 08:20:10;;;;;;;1.58;0.55;;;19.10;62.20;;;;;;5002514;28;20065;-64
2023/03/20 08:22:37;;;;;;;1.38;0.55;;;19.10;62.20;;;;;;5017747;28;20054;-64
2023/03/20 08:25:07;;;;;;;0.88;0.20;;;19.10;62.20;;;;;;5031336;28;20087;-64
2023/03/20 08:27:35;;;;;;;2.22;0.80;;;19.00;62.20;;;;;;5026447;28;20049;-63
2023/03/20 08:30:03;;;;;;;1.67;0.68;;;19.00;62.20;;;;;;5011213;28;20045;-64
2023/03/20 08:32:30;;;;;;;1.45;0.57;;;19.00;62.20;;;;;;5029622;28;20068;-64
2023/03/20 08:34:57;;;;;;;1.33;0.88;;;19.00;62.80;;;;;;5030314;28;20072;-63
2023/03/20 08:37:24;;;;;;;1.27;0.30;;;19.00;62.30;;;;;;5029563;28;20068;-64
2023/03/20 08:39:51;;;;;;;2.17;0.80;;;19.00;62.30;;;;;;5030212;28;20050;-64
2023/03/20 08:42:18;;;;;;;1.10;0.13;;;18.90;62.20;;;;;;5013856;28;20049;-64
2023/03/20 08:44:47;;;;;;;1.73;0.35;;;19.00;62.30;;;;;;5030178;28;20294;-64
2023/03/20 08:47:15;;;;;;;1.20;0.50;;;19.00;62.80;;;;;;5011736;28;20119;-64
2023/03/20 08:49:42;;;;;;;1.35;0.50;;;19.00;62.30;;;;;;5011494;28;20140;-64
2023/03/20 08:52:09;;;;;;;1.15;0.60;;;19.00;62.20;;;;;;5030256;28;20081;-64
2023/03/20 08:54:36;;;;;;;1.55;0.57;;;19.00;62.20;;;;;;5030131;28;20075;-64
2023/03/20 08:57:03;;;;;;;1.00;0.30;;;19.10;62.20;;;;;;5013096;28;20400;-65
2023/03/20 08:59:31;;;;;;;2.10;0.38;;;19.10;62.00;;;;;;5030992;28;20045;-63
2023/03/20 09:02:00;;;;;;;1.45;0.68;;;19.20;62.00;;;;;;5030877;28;20682;-64
2023/03/20 09:04:27;;;;;;;1.00;0.50;;;19.20;61.90;;;;;;5023245;28;20748;-64
2023/03/20 09:06:54;;;;;;;1.05;0.20;;;19.30;62.40;;;;;;5022091;28;20068;-65
2023/03/20 09:09:26;;;;;;;2.63;0.65;;;19.30;61.70;;;;;;5026338;28;20054;-64
2023/03/20 09:11:53;;;;;;;0.77;0.10;;;19.40;61.70;;;;;;5030887;28;20088;-64
2023/03/20 09:14:20;;;;;;;1.83;0.25;;;19.50;61.60;;;;;;5030791;28;20056;-64
2023/03/20 09:16:47;;;;;;;1.38;0.40;;;19.60;61.50;;;;;;5026108;28;20060;-64
2023/03/20 09:19:17;;;;;;;1.17;0.73;;;19.60;61.40;;;;;;5028139;28;20057;-64
2023/03/20 09:21:44;;;;;;;1.13;0.65;;;19.70;61.30;;;;;;5031004;28;20045;-64
2023/03/20 09:24:12;;;;;;;2.63;0.77;;;19.70;61.20;;;;;;5010726;28;20061;-64
2023/03/20 09:26:39;;;;;;;0.90;0.13;;;19.70;61.20;;;;;;5026486;28;20049;-65
2023/03/20 09:29:06;;;;;;;0.95;0.20;;;19.70;61.10;;;;;;5029983;28;20441;-64
2023/03/20 09:31:33;;;;;;;2.35;0.50;;;19.80;61.20;;;;;;5017791;28;20530;-64
2023/03/20 09:34:00;;;;;;;1.30;0.50;;;19.80;61.20;;;;;;5003409;28;20053;-64
2023/03/20 09:36:29;;;;;;;2.40;0.22;;;19.80;61.20;;;;;;5029582;28;20093;-65
2023/03/20 09:38:56;;;;;;;1.48;0.80;;;19.80;61.10;;;;;;5027216;28;20060;-64
2023/03/20 09:41:25;;;;;;;1.42;0.80;;;19.80;61.20;;;;;;5011371;28;20059;-64
2023/03/20 09:44:14;;;;;;;3.53;0.50;;;19.80;61.10;;;;;;5029596;28;20515;-63
2023/03/20 09:47:07;;;;;;;2.13;0.50;;;19.80;61.20;;;;;;5011496;28;20061;-64
2023/03/20 09:49:44;;;;;;;1.55;0.73;;;19.80;61.20;;;;;;5028890;28;20046;-64
2023/03/20 09:52:21;;;;;;;1.55;0.60;;;19.80;61.30;;;;;;5029993;28;20046;-64
2023/03/20 09:54:52;;;;;;;1.00;0.20;;;19.80;61.30;;;;;;5011706;28;20049;-64
2023/03/20 09:57:24;;;;;;;1.40;0.80;;;19.70;61.30;;;;;;5029682;28;20050;-63
2023/03/20 09:59:56;;;;;;;2.15;0.40;;;19.70;61.30;;;;;;5016220;28;20426;-64
2023/03/20 10:02:33;;;;;;;1.83;0.63;;;19.70;61.40;;;;;;5010636;28;20099;-64
2023/03/20 10:05:00;;;;;;;1.45;0.10;;;19.70;61.40;;;;;;5003283;28;20363;-64
2023/03/20 10:07:28;;;;;;;1.65;0.60;;;19.60;61.40;;;;;;5028865;28;20053;-64
2023/03/20 10:09:55;;;;;;;1.33;0.73;;;19.70;61.50;;;;;;5030043;28;20060;-64
2023/03/20 10:12:48;;;;;;;1.70;0.55;;;19.60;61.50;;;;;;5029884;28;20053;-64
2023/03/20 10:15:24;;;;;;;1.92;0.57;;;19.60;61.50;;;;;;4992379;28;20054;-65
2023/03/20 10:17:55;;;;;;;;;;;19.60;61.60;;;;;;5010954;28;20057;-65
2023/03/20 10:20:28;;;;;;;1.23;0.73;;;19.60;61.50;;;;;;5010224;28;19925;-64
2023/03/20 10:23:03;;;;;;;1.65;0.65;;;19.50;62.10;;;;;;5012140;28;20052;-64
2023/03/20 10:25:32;;;;;;;0.95;0.20;;;19.50;61.60;;;;;;5010428;28;20478;-65
2023/03/20 10:28:03;;;;;;;1.23;0.70;;;19.50;61.70;;;;;;5009098;28;20049;-64
2023/03/20 10:30:49;;;;;;;1.52;0.32;;;19.50;61.70;;;;;;5010098;28;20423;-65
2023/03/20 10:33:31;;;;;;;1.50;0.20;;;19.50;61.70;;;;;;5009975;28;20561;-65
2023/03/20 10:36:13;;;;;;;1.02;0.17;;;19.50;61.80;;;;;;5021987;28;20077;-64
2023/03/20 10:38:48;;;;;;;1.88;0.70;;;19.40;61.80;;;;;;5030472;28;20083;-64
2023/03/20 10:41:19;;;;;;;2.10;0.80;;;19.40;61.80;;;;;;5029226;28;20049;-64
2023/03/20 10:43:49;;;;;;;1.25;0.80;;;19.40;61.80;;;;;;5011508;28;20056;-64
2023/03/20 10:46:21;;;;;;;1.00;0.43;;;19.40;61.80;;;;;;5028118;28;20503;-64
2023/03/20 10:48:51;;;;;;;1.15;0.63;;;19.40;61.80;;;;;;5029513;28;20053;-65
2023/03/20 10:51:20;;;;;;;2.13;0.70;;;19.40;61.90;;;;;;5028987;28;20124;-64
2023/03/20 10:53:49;;;;;;;;;;;19.40;61.90;;;;;;5012567;28;20057;-64
2023/03/20 10:56:23;;;;;;;1.20;0.60;;;19.40;61.90;;;;;;5011200;28;19924;-64
2023/03/20 10:58:58;;;;;;;0.93;0.32;;;19.30;61.90;;;;;;5014546;28;20061;-64
2023/03/20 11:01:25;;;;;;;1.95;0.68;;;19.30;62.50;;;;;;5010575;28;20054;-65
2023/03/20 11:03:52;;;;;;;1.73;0.60;;;19.30;61.90;;;;;;5014115;28;20050;-64
2023/03/20 11:06:22;;;;;;;1.92;0.50;;;19.30;61.90;;;;;;5031953;28;20053;-65
2023/03/20 11:08:53;;;;;;;2.55;0.40;;;19.30;62.00;;;;;;5014668;28;20053;-65
2023/03/20 11:11:25;;;;;;;1.10;0.20;;;19.20;61.90;;;;;;5014905;28;20057;-65
2023/03/20 11:13:52;;;;;;;0.90;0.38;;;19.30;61.90;;;;;;5033459;28;20045;-63
2023/03/20 11:16:22;;;;;;;2.08;0.82;;;19.20;61.90;;;;;;5033118;28;20062;-63
2023/03/20 11:18:51;;;;;;;1.67;0.57;;;19.20;61.90;;;;;;5033025;28;20053;-62
2023/03/20 11:21:23;;;;;;;2.17;0.80;;;19.20;62.00;;;;;;5001020;28;20409;-62
2023/03/20 11:23:52;;;;;;;1.77;0.40;;;19.20;62.00;;;;;;5020873;28;20049;-61
2023/03/20 11:26:32;;;;;;;1.05;0.20;;;19.20;62.00;;;;;;5024392;28;20049;-61
2023/03/20 11:29:00;;;;;;;1.10;0.30;;;19.20;62.00;;;;;;5001332;28;20057;-64
2023/03/20 11:31:33;;;;;;;1.50;0.52;;;19.20;62.00;;;;;;5029090;28;20096;-62
2023/03/20 11:34:10;;;;;;;0.93;0.43;;;19.20;62.00;;;;;;5006489;28;20057;-63
2023/03/20 11:36:40;;;;;;;1.08;0.40;;;19.20;62.10;;;;;;5030442;28;20111;-64
2023/03/20 11:39:14;;;;;;;1.33;0.28;;;19.20;62.10;;;;;;5031607;28;20049;-63
2023/03/20 11:41:49;;;;;;;1.23;0.32;;;19.10;62.00;;;;;;5029466;28;20204;-65
2023/03/20 11:44:21;;;;;;;;;;;19.10;62.10;;;;;;5030052;28;20219;-62
2023/03/20 11:46:56;;;;;;;1.75;0.77;;;19.10;62.60;;;;;;5010963;28;19980;-63
2023/03/20 11:49:24;;;;;;;0.90;0.32;;;19.10;62.10;;;;;;5030015;28;20052;-62
2023/03/20 11:51:52;;;;;;;1.50;0.82;;;19.20;62.20;;;;;;5032759;28;20064;-62
2023/03/20 11:54:23;;;;;;;2.25;0.47;;;19.10;62.10;;;;;;5045502;28;20056;-63
2023/03/20 11:56:56;;;;;;;1.90;0.70;;;19.10;62.20;;;;;;5011751;28;20054;-63
2023/03/20 11:59:26;;;;;;;1.45;0.73;;;19.10;62.20;;;;;;5012645;28;20050;-62
2023/03/20 12:01:54;;;;;;;1.38;0.30;;;19.10;62.20;;;;;;5031457;28;20426;-62
2023/03/20 12:04:28;;;;;;;1.88;0.57;;;19.10;62.20;;;;;;5011794;28;20053;-62
2023/03/20 12:06:58;;;;;;;1.90;0.68;;;19.10;62.20;;;;;;5032150;28;20050;-62
2023/03/20 12:09:37;;;;;;;1.58;1.15;;;19.10;62.20;;;;;;5013931;28;20052;-62
2023/03/20 12:12:17;;;;;;;1.35;0.55;;;19.10;62.20;;;;;;5013918;28;20589;-62
2023/03/20 12:14:53;;;;;;;1.83;0.70;;;19.10;62.20;;;;;;5012972;28;20054;-62
2023/03/20 12:17:55;;;;;;;2.30;0.80;;;19.10;62.20;;;;;;5030171;28;20049;-62
2023/03/20 12:20:35;;;;;;;1.35;0.70;;;19.10;62.30;;;;;;4959368;28;20055;-62
2023/03/20 12:23:09;;;;;;;1.60;0.20;;;19.10;62.20;;;;;;4955010;28;20476;-63
2023/03/20 12:25:44;;;;;;;2.05;0.60;;;19.10;62.20;;;;;;4984318;28;20550;-62
2023/03/20 12:28:17;;;;;;;1.45;0.73;;;19.10;62.30;;;;;;5013981;28;20129;-62
2023/03/20 12:30:57;;;;;;;1.50;0.15;;;19.10;62.30;;;;;;5030563;28;20053;-62
2023/03/20 12:33:35;;;;;;;2.05;0.80;;;19.10;62.30;;;;;;5030725;28;20521;-62
2023/03/20 12:36:03;;;;;;;1.23;0.38;;;19.10;62.30;;;;;;5017410;28;20065;-62
2023/03/20 12:38:33;;;;;;;1.13;0.52;;;19.10;62.30;;;;;;5027902;28;20049;-63
2023/03/20 12:41:10;;;;;;;0.90;0.30;;;19.00;62.20;;;;;;5031291;28;20054;-62
2023/03/20 12:43:58;;;;;;;0.82;0.17;;;19.10;62.30;;;;;;5030295;28;20564;-62
2023/03/20 12:46:34;;;;;;;1.25;0.43;;;19.10;62.20;;;;;;5010675;28;20064;-63
2023/03/20 12:49:14;;;;;;;1.90;0.70;;;19.10;62.20;;;;;;5031748;28;20521;-62
2023/03/20 12:51:52;;;;;;;2.05;0.25;;;19.10;62.20;;;;;;5013625;28;20060;-62
2023/03/20 12:54:36;;;;;;;1.40;0.65;;;19.20;62.20;;;;;;5013847;28;20053;-62
2023/03/20 12:57:15;;;;;;;1.23;0.68;;;19.20;62.10;;;;;;5029557;28;20057;-62
2023/03/20 12:59:53;;;;;;;1.80;0.77;;;19.20;62.00;;;;;;5013767;28;20045;-62
2023/03/20 13:02:33;;;;;;;1.73;0.85;;;19.30;62.00;;;;;;5030911;28;20053;-62
2023/03/20 13:05:13;;;;;;;3.05;0.75;;;19.30;61.80;;;;;;5030814;28;20049;-62